Terminal Aerodrome Forecast
Issued by NWS Louisville, KY

Home | Current Version | Previous Version | Text Only | Print | Product List | Glossary On
Versions: 1 2 3 4 5 6 7 8 9 10 11 12 13 14 15 16 17 18 19
000
FTUS43 KLMK 201130
TAFSDF
TAF
KSDF 201130Z 2012/2118 19011G19KT P6SM SCT070 BKN250 WS020/21045KT
     FM201500 19021G30KT P6SM SCT070 BKN250
     FM210000 19014G23KT P6SM SCT035 BKN110
     FM211000 20015G24KT 6SM -SHRA BR SCT020 BKN030
     FM211400 30009KT 5SM SHRA BKN010 OVC020=

USA.gov is the U.S. government's official web portal to all federal, state and local government web resources and services.